Flight Track Log - Related Links

Times and Time Zones

All times are in EST time to prevent confusion due to time zone crossing. See the N865JM flight status page for this flight to view local times or setup timezone preferences in your user account.

Time Position Orientation Groundspeed Altitude Reporting Facility
EST Latitude Longitude Course Direction KTS MPH feet Rate Location/Type
Wed 04:00:19 PM 41.2158 -77.0486 180° South 414 476 5,300  Level New York Center
Wed 04:01:20 PM 41.1511 -77.0922 207° Southwest 297 342 9,200 3,950 Climbing New York Center
Wed 04:02:19 PM 41.0700 -77.0847 176° South 262 302 13,200 3,328 Climbing New York Center
Wed 04:03:00 PM 40.6991 -77.0631 180° South  Level Estimated
Wed 04:03:19 PM 40.9747 -77.0786 177° South 294 338 15,800  Level New York Center
Wed 04:04:00 PM 40.6087 -77.0864 180° South  Level Estimated
Wed 04:04:19 PM 40.8689 -77.0689 176° South 348 400 17,000  Level New York Center
Wed 04:05:20 PM 40.7567 -77.0614 177° South 392 451 17,000 99 Level New York Center
Wed 04:06:20 PM 40.6342 -77.0528 177° South 403 464 17,200 700 Climbing New York Center
Wed 04:07:20 PM 40.5219 -77.0453 177° South 408 470 18,400 1,563 Climbing New York Center
Wed 04:08:19 PM 40.4139 -77.0383 177° South 419 482 20,300 2,050 Climbing New York Center
Wed 04:09:20 PM 40.2956 -77.0303 177° South 424 488 22,500 2,150 Climbing New York Center
Wed 04:10:19 PM 40.1731 -77.0219 177° South 434 499 24,600 2,017 Climbing New York Center
Wed 04:11:19 PM 40.0544 -77.0167 178° South 434 499 26,500 1,950 Climbing New York Center
Wed 04:12:19 PM 39.9339 -77.0086 177° South 434 499 28,500 1,240 Climbing New York Center
Wed 04:13:20 PM 39.8136 -76.9981 176° South 439 505 29,000 650 Climbing New York Center
Wed 04:14:19 PM 39.6992 -76.9906 177° South 439 505 29,800 923 Climbing New York Center
Wed 04:15:30 PM 39.5514 -76.9803 177° South 415 478 31,000 1,000 Climbing Washington Center
Wed 04:16:31 PM 39.4433 -76.9619 173° South 408 470 32,000 1,100 Climbing Washington Center
Wed 04:17:30 PM 39.3292 -76.9278 167° South 413 475 33,200 1,109 Climbing Washington Center
Wed 04:18:30 PM 39.2189 -76.8936 167° South 413 475 34,200 893 Climbing Washington Center
Wed 04:19:31 PM 39.1131 -76.8650 168° South 408 470 35,000 706 Climbing Washington Center
Wed 04:20:29 PM 39.0008 -76.8308 167° South 413 475 35,600 555 Climbing Washington Center
Wed 04:21:30 PM 38.8928 -76.7997 167° South 413 475 36,100 496 Climbing Washington Center
Wed 04:22:30 PM 38.7825 -76.7686 168° South 408 470 36,600 655 Climbing Washington Center
Wed 04:23:29 PM 38.6764 -76.7431 169° South 403 464 37,400 655 Climbing Washington Center
Wed 04:24:29 PM 38.5764 -76.7283 173° South 387 445 37,900 492 Climbing Washington Center
Wed 04:25:31 PM 38.4786 -76.7161 174° South 368 423 38,400 492 Climbing Washington Center
Wed 04:26:31 PM 38.3767 -76.7014 174° South 368 423 38,900 305 Climbing Washington Center
Wed 04:27:29 PM 38.2767 -76.6867 173° South 368 423 39,000 50 Climbing Washington Center
Wed 04:28:30 PM 38.1706 -76.6719 174° South 368 423 39,000  Level Washington Center
Wed 04:29:31 PM 38.0683 -76.6572 174° South 368 423 39,000  Level Washington Center
Wed 04:30:28 PM 37.9683 -76.6453 175° South 368 423 39,000 -254 Level Washington Center
Wed 04:31:29 PM 37.8683 -76.6308 173° South 368 423 38,500 -492 Descending Washington Center
Wed 04:32:30 PM 37.7664 -76.6189 175° South 368 423 38,000 -246 Descending Washington Center
Wed 04:33:31 PM 37.6664 -76.6044 173° South 368 423 38,000  Level Washington Center
Wed 04:34:29 PM 37.5744 -76.6111 183° South 357 411 38,000  Level Washington Center
Wed 04:35:30 PM 37.4908 -76.6361 193° South 329 379 38,000  Level Washington Center
Wed 04:36:30 PM 37.4175 -76.6614 195° South 315 362 38,000  Level Washington Center
Wed 04:37:29 PM 37.3319 -76.6864 193° South 315 362 38,000  Level Washington Center
Wed 04:38:29 PM 37.2461 -76.7164 196° South 320 368 38,000  Level Washington Center
Wed 04:39:30 PM 37.1603 -76.7464 196° South 320 368 38,000  Level Washington Center
Wed 04:40:31 PM 37.0725 -76.7736 194° South 320 368 38,000  Level Washington Center
Wed 04:41:29 PM 36.9867 -76.8008 194° South 320 368 38,000  Level Washington Center
Wed 04:42:30 PM 36.8967 -76.8308 195° South 320 368 38,000  Level Washington Center
Wed 04:43:30 PM 36.8086 -76.8578 194° South 320 368 38,000  Level Washington Center
Wed 04:44:29 PM 36.7208 -76.8875 195° South 320 368 38,000  Level Washington Center
Wed 04:45:29 PM 36.6328 -76.9144 194° South 320 368 38,000  Level Washington Center
Wed 04:46:30 PM 36.5428 -76.9414 194° South 320 368 38,000  Level Washington Center
Wed 04:47:30 PM 36.4528 -76.9736 196° South 326 375 38,000  Level Washington Center
Wed 04:48:30 PM 36.3583 -77.0053 195° South 326 375 38,000  Level Washington Center
Wed 04:49:31 PM 36.2664 -77.0347 194° South 333 383 38,000  Level Washington Center
Wed 04:50:29 PM 36.1764 -77.0614 193° South 338 389 38,000 -50 Level Washington Center
Wed 04:51:30 PM 36.0861 -77.0878 193° South 338 389 37,900  Descending Washington Center
Wed 04:52:30 PM 35.9961 -77.1169 195° South 338 389 38,000 50 Climbing Washington Center
Wed 04:53:31 PM 35.9103 -77.1411 193° South 330 380 38,000  Level Washington Center
Wed 04:54:30 PM 35.8222 -77.1700 195° South 330 380 38,000  Level Washington Center
Wed 04:55:30 PM 35.7322 -77.1964 193° South 330 380 38,000  Level Washington Center
Wed 04:56:31 PM 35.6378 -77.2278 195° South 335 386 38,000  Level Washington Center
Wed 04:57:29 PM 35.5497 -77.2567 195° South 335 386 38,000  Level Washington Center
Wed 04:58:30 PM 35.4556 -77.2825 193° South 340 391 38,000  Level Washington Center
Wed 04:59:30 PM 35.3675 -77.3114 195° South 340 391 38,000  Level Washington Center
Wed 05:00:30 PM 35.2775 -77.3400 195° South 340 391 38,000  Level Washington Center
Wed 05:01:31 PM 35.1872 -77.3658 193° South 340 391 38,000  Level Washington Center
Wed 05:02:29 PM 35.0931 -77.3944 194° South 340 391 38,000  Level Washington Center
Wed 05:03:30 PM 35.0008 -77.4228 194° South 335 386 38,000  Level Washington Center
Wed 05:04:30 PM 34.9211 -77.4489 195° South 335 386 38,000  Level Washington Center
Wed 05:05:30 PM 34.8161 -77.4819 194° South 342 394 38,000  Level Washington Center
Wed 05:06:30 PM 34.7239 -77.5100 194° South 347 399 38,000  Level Washington Center
Wed 05:07:31 PM 34.6294 -77.5406 195° South 347 399 38,000  Level Washington Center
Wed 05:08:31 PM 34.5353 -77.5686 194° South 347 399 38,000  Level Washington Center
Wed 05:09:29 PM 34.4389 -77.5964 193° South 352 405 38,000  Level Washington Center
Wed 05:10:30 PM 34.3422 -77.6269 195° South 357 411 38,000  Level Washington Center
Wed 05:12:59 PM 34.0986 -77.6967 193° South 356 410 38,000  Level Jacksonville Center
Wed 05:13:59 PM 34.0017 -77.7250 194° South 356 410 38,000 -50 Level Jacksonville Center
Wed 05:14:59 PM 33.9028 -77.7558 195° South 371 427 37,900  Descending Jacksonville Center
Wed 05:16:00 PM 33.8061 -77.7842 194° South 366 421 38,000 50 Climbing Jacksonville Center
Wed 05:17:00 PM 33.7092 -77.8122 194° South 366 421 38,000  Level Jacksonville Center
Wed 05:17:59 PM 33.6103 -77.8428 194° South 366 421 38,000 -50 Level Jacksonville Center
Wed 05:18:59 PM 33.5153 -77.8706 194° South 366 421 37,900  Descending Jacksonville Center
Wed 05:20:00 PM 33.4183 -77.9011 195° South 366 421 38,000 50 Climbing Jacksonville Center
Wed 05:20:59 PM 33.3214 -77.9289 193° South 366 421 38,000  Level Jacksonville Center
Wed 05:21:59 PM 33.2267 -77.9564 194° South 361 415 38,000  Level Jacksonville Center
Wed 05:23:00 PM 33.1275 -77.9842 193° South 361 415 38,000 -50 Level Jacksonville Center
Wed 05:23:59 PM 33.0325 -78.0117 194° South 361 415 37,900  Descending Jacksonville Center
Wed 05:25:00 PM 32.9375 -78.0392 194° South 356 410 38,000 50 Climbing Jacksonville Center
Wed 05:25:59 PM 32.8406 -78.0667 193° South 356 410 38,000  Level Jacksonville Center
Wed 05:26:59 PM 32.7478 -78.0939 194° South 356 410 38,000  Level Jacksonville Center
Wed 05:27:59 PM 32.6508 -78.1261 196° South 356 410 38,000  Level Jacksonville Center
Wed 05:28:59 PM 32.5558 -78.1533 194° South 356 410 38,000  Level Jacksonville Center
Wed 05:29:59 PM 32.4567 -78.1806 193° South 356 410 38,000  Level Jacksonville Center
Wed 05:30:59 PM 32.3617 -78.2053 192° South 356 410 38,000  Level Jacksonville Center
Wed 05:31:59 PM 32.2644 -78.2322 193° South 356 410 38,000  Level Jacksonville Center
Wed 05:32:59 PM 32.1697 -78.2642 196° South 356 410 38,000  Level Jacksonville Center
Wed 05:33:59 PM 32.0725 -78.2936 194° South 356 410 38,000  Level Jacksonville Center
Wed 05:34:59 PM 31.9714 -78.3231 194° South 356 410 38,000  Level Jacksonville Center
Wed 05:35:59 PM 31.8764 -78.3497 193° South 356 410 38,000  Level Jacksonville Center
Wed 05:36:59 PM 31.7833 -78.3739 192° South 356 410 38,000  Level Jacksonville Center
Wed 05:38:00 PM 31.6800 -78.4058 195° South 357 411 38,000  Level Jacksonville Center
Wed 05:38:59 PM 31.5972 -78.4292 194° South 357 411 38,000  Level Jacksonville Center
Wed 05:39:59 PM 31.5022 -78.4558 193° South 357 411 38,000  Level Jacksonville Center
Wed 05:40:59 PM 31.4031 -78.4825 193° South 357 411 38,000  Level Jacksonville Center
Wed 05:41:59 PM 31.3058 -78.5089 193° South 357 411 38,000  Level Jacksonville Center
Wed 05:43:00 PM 31.2128 -78.5325 192° South 357 411 38,000  Level Jacksonville Center
Wed 05:43:59 PM 31.1136 -78.5639 195° South 357 411 38,000  Level Jacksonville Center
Wed 05:44:59 PM 31.0164 -78.5925 194° South 357 411 38,000  Level Jacksonville Center
Wed 05:46:00 PM 30.9169 -78.6164 192° South 356 410 38,000 -50 Level Jacksonville Center
Wed 05:46:59 PM 30.8281 -78.6422 194° South 349 402 37,900  Descending Jacksonville Center
Wed 05:49:05 PM 30.6186 -78.7039 194° South 340 391 38,000 32 Climbing Miami Center
Wed 05:50:05 PM 30.5244 -78.7358 196° South 345 397 38,000  Level Miami Center
Wed 05:51:05 PM 30.4322 -78.7681 197° South 350 403 38,000  Level Miami Center
Wed 05:52:05 PM 30.3381 -78.8022 197° South 355 409 38,000  Level Miami Center
Wed 05:53:05 PM 30.2458 -78.8367 198° South 360 414 38,000  Level Miami Center
Wed 05:54:05 PM 30.1517 -78.8683 196° South 360 414 38,000  Level Miami Center
Wed 05:55:05 PM 30.0572 -78.9050 199° South 354 407 38,000  Level Miami Center
Wed 05:56:05 PM 29.9714 -78.9322 195° South 349 402 38,000  Level Miami Center
Wed 05:57:05 PM 29.8792 -78.9686 199° South 355 409 38,000 -100 Level Miami Center
Wed 05:58:05 PM 29.7867 -79.0050 199° South 355 409 37,800 -350 Descending Miami Center
Wed 05:59:05 PM 29.6803 -79.0197 187° South 367 422 37,300 -500 Descending Miami Center
Wed 06:00:05 PM 29.5756 -79.0367 188° South 374 430 36,800 -500 Descending Miami Center
Wed 06:01:05 PM 29.4731 -79.0586 191° South 384 442 36,300 -450 Descending Miami Center
Wed 06:02:05 PM 29.3664 -79.0778 189° South 390 449 35,900 -450 Descending Miami Center
Wed 06:03:05 PM 29.2619 -79.0947 188° South 390 449 35,400 -700 Descending Miami Center
Wed 06:04:05 PM 29.1592 -79.1186 191° South 384 442 34,500 -950 Descending Miami Center
Wed 06:05:05 PM 29.0525 -79.1356 188° South 389 448 33,500 -1,000 Descending Miami Center
Wed 06:06:05 PM 28.9417 -79.1522 187° South 394 453 32,500 -1,000 Descending Miami Center
Wed 06:07:05 PM 28.8308 -79.1714 189° South 394 453 31,500 -1,000 Descending Miami Center
Wed 06:08:05 PM 28.7219 -79.1928 190° South 400 460 30,500 -1,000 Descending Miami Center
Wed 06:09:05 PM 28.6092 -79.2117 188° South 406 467 29,500 -1,000 Descending Miami Center
Wed 06:10:05 PM 28.5003 -79.2331 190° South 411 473 28,500 -1,000 Descending Miami Center
Wed 06:11:05 PM 28.3850 -79.2542 189° South 411 473 27,500 -1,050 Descending Miami Center
Wed 06:12:05 PM 28.2742 -79.2731 189° South 411 473 26,400 -1,100 Descending Miami Center
Wed 06:13:05 PM 28.1631 -79.2942 190° South 411 473 25,300 -1,100 Descending Miami Center
Wed 06:14:05 PM 28.0542 -79.3153 190° South 411 473 24,200 -1,300 Descending Miami Center
Wed 06:15:05 PM 27.9411 -79.3342 188° South 411 473 22,700 -1,650 Descending Miami Center
Wed 06:16:05 PM 27.8364 -79.3506 188° South 375 432 20,900 -1,600 Descending Miami Center
Wed 06:17:05 PM 27.7483 -79.3675 190° South 363 418 19,500 -1,450 Descending Miami Center
Wed 06:18:05 PM 27.6500 -79.3933 193° South 358 412 18,000 -1,500 Descending Miami Center
Wed 06:19:05 PM 27.5650 -79.4664 217° Southwest 346 398 16,500 -1,250 Descending Miami Center
Wed 06:20:05 PM 27.4928 -79.5350 220° Southwest 347 399 15,500 -1,200 Descending Miami Center
Wed 06:21:05 PM 27.4289 -79.5992 222° Southwest 322 371 14,100 -1,350 Descending Miami Center
Wed 06:22:05 PM 27.3736 -79.6492 219° Southwest 306 352 12,800 -1,400 Descending Miami Center
Wed 06:23:05 PM 27.3119 -79.7086 221° Southwest 297 342 11,300 -1,450 Descending Miami Center
Wed 06:24:05 PM 27.2481 -79.7700 221° Southwest 290 334 9,900 -1,300 Descending Miami Center
Wed 06:25:05 PM 27.1906 -79.8269 221° Southwest 290 334 8,700 -1,050 Descending Miami Center
Wed 06:26:05 PM 27.1261 -79.8183 173° South 253 291 7,800 -850 Descending Miami Center
Wed 06:27:05 PM 27.0897 -79.7497 121° Southeast 236 272 7,000 -950 Descending Miami Center
Wed 06:28:05 PM 27.0581 -79.6672 113° Southeast 260 299 5,900 -950 Descending Miami Center
Wed 06:29:05 PM 27.0022 -79.6333 152° Southeast 231 266 5,100 -900 Descending Miami Center
Wed 06:30:05 PM 26.9333 -79.6342 181° South 224 258 4,100 -550 Descending Miami Center
Wed 06:31:05 PM 26.8686 -79.6347 180° South 245 282 4,000 -100 Descending Miami Center
Wed 06:33:00 PM 26.8670 -79.8436 270° West  Level FlightAware Approximate
Wed 06:40:00 PM 26.6832 -80.0956 110° East  Level Estimated
Wed 06:41:00 PM 26.6832 -80.0956 110° East  Level Estimated
Wed 06:42:00 PM 26.6832 -80.0956 110° East  Level Estimated
Wed 06:43:00 PM 26.6832 -80.0956 110° East  Level Estimated
Wed 06:44:00 PM 26.6832 -80.0956 110° East  Level Estimated
Wed 06:45:00 PM 26.6832 -80.0956 110° East  Level Estimated
Wed 06:46:00 PM 26.6832 -80.0956 110° East  Level Estimated
Wed 06:47:00 PM 26.6832 -80.0956 110° East  Level Estimated
Wed 06:48:00 PM 26.6832 -80.0956 110° East  Level Estimated

Login

Don't have an account? Register now (free) for customized features, flight alerts, and more!